createdAt,value
2022-09-05T00:00:52.561Z,18.30
2022-09-05T00:03:28.506Z,18.30
2022-09-05T00:06:13.876Z,18.30
2022-09-05T00:08:51.118Z,18.30
2022-09-05T00:11:42.951Z,18.30
2022-09-05T00:14:53.749Z,18.30
2022-09-05T00:17:37.067Z,18.30
2022-09-05T00:24:19.085Z,18.30
2022-09-05T00:24:35.188Z,18.40
2022-09-05T00:26:17.307Z,18.30
2022-09-05T00:28:53.682Z,18.10
2022-09-05T00:31:55.385Z,17.80
2022-09-05T00:34:39.768Z,17.60
2022-09-05T00:37:26.540Z,17.30
2022-09-05T00:40:17.814Z,17.10
2022-09-05T00:42:46.039Z,16.90
2022-09-05T00:45:19.865Z,16.70
2022-09-05T00:47:52.940Z,16.50
2022-09-05T00:50:25.480Z,16.40
2022-09-05T00:53:07.204Z,16.40
2022-09-05T00:55:48.060Z,16.30
2022-09-05T00:58:36.051Z,16.30
2022-09-05T01:01:10.698Z,16.20
2022-09-05T01:04:05.633Z,16.20
2022-09-05T01:06:42.677Z,16.20
2022-09-05T01:09:28.463Z,16.20
2022-09-05T01:11:58.959Z,16.20
2022-09-05T01:14:35.396Z,16.20
2022-09-05T01:17:08.652Z,16.20
2022-09-05T01:19:44.917Z,16.30
2022-09-05T01:22:15.283Z,16.30
2022-09-05T01:25:01.144Z,16.20
2022-09-05T01:27:35.182Z,16.20
2022-09-05T01:30:23.797Z,16.20
2022-09-05T01:33:18.095Z,16.10
2022-09-05T01:36:00.562Z,16.10
2022-09-05T01:38:36.757Z,16.10
2022-09-05T01:41:21.589Z,16.10
2022-09-05T01:44:28.979Z,16.10
2022-09-05T01:47:09.645Z,16.10
2022-09-05T01:49:49.157Z,16.10
2022-09-05T01:52:20.912Z,16.10
2022-09-05T01:55:07.265Z,16.10
2022-09-05T01:58:00.946Z,16.10
2022-09-05T02:00:39.997Z,16.10
2022-09-05T02:03:10.499Z,16.10
2022-09-05T02:05:51.879Z,16.00
2022-09-05T02:08:19.260Z,16.00
2022-09-05T02:11:10.040Z,16.00
2022-09-05T02:13:37.380Z,16.00
2022-09-05T02:16:13.245Z,16.00
2022-09-05T02:18:53.498Z,16.00
2022-09-05T02:21:56.647Z,16.00
2022-09-05T02:24:27.515Z,16.00
2022-09-05T02:26:57.889Z,16.00
2022-09-05T02:29:28.828Z,16.00
2022-09-05T02:32:17.452Z,15.90
2022-09-05T02:34:51.018Z,16.00
2022-09-05T02:38:38.043Z,15.90
2022-09-05T02:45:08.602Z,15.90
2022-09-05T02:45:24.558Z,15.90
2022-09-05T02:46:09.226Z,15.90
2022-09-05T02:48:42.717Z,15.90
2022-09-05T02:57:24.142Z,15.90
2022-09-05T02:57:42.878Z,15.90
2022-09-05T02:58:08.045Z,16.00
2022-09-05T03:00:28.970Z,15.90
2022-09-05T03:03:15.303Z,16.00
2022-09-05T03:05:42.819Z,16.00
2022-09-05T03:08:28.602Z,15.90
2022-09-05T03:11:14.599Z,15.90
2022-09-05T03:14:00.663Z,15.80
2022-09-05T03:16:47.664Z,15.80
2022-09-05T03:19:33.945Z,15.80
2022-09-05T03:22:26.035Z,15.70
2022-09-05T03:25:18.600Z,15.80
2022-09-05T03:28:04.664Z,15.80
2022-09-05T03:30:34.867Z,15.80
2022-09-05T03:33:22.523Z,15.90
2022-09-05T03:35:58.678Z,15.90
2022-09-05T03:38:31.938Z,15.90
2022-09-05T03:41:09.070Z,15.80
2022-09-05T03:43:54.492Z,15.80
2022-09-05T03:46:40.505Z,15.80
2022-09-05T03:49:25.872Z,15.80
2022-09-05T03:57:06.564Z,15.70
2022-09-05T03:57:10.996Z,15.60
2022-09-05T03:58:16.692Z,15.60
2022-09-05T04:01:11.096Z,15.60
2022-09-05T04:08:07.124Z,15.50
2022-09-05T04:08:14.569Z,15.60
2022-09-05T04:09:50.545Z,15.60
2022-09-05T04:12:22.667Z,15.60
2022-09-05T04:14:53.155Z,15.60
2022-09-05T04:17:39.162Z,15.70
2022-09-05T04:20:09.566Z,15.70
2022-09-05T04:22:55.507Z,15.70
2022-09-05T04:25:39.285Z,15.70
2022-09-05T04:28:21.924Z,15.60
2022-09-05T04:30:54.596Z,15.60
2022-09-05T04:33:35.844Z,15.50
2022-09-05T04:36:17.689Z,15.50
2022-09-05T04:38:46.301Z,15.40
2022-09-05T04:41:13.696Z,15.40
2022-09-05T04:43:52.550Z,15.40
2022-09-05T04:46:22.945Z,15.30
2022-09-05T04:48:56.760Z,15.30
2022-09-05T04:51:43.986Z,15.30
2022-09-05T04:54:18.759Z,15.20
2022-09-05T04:56:48.804Z,15.20
2022-09-05T05:05:58.590Z,15.10
2022-09-05T05:06:12.587Z,15.10
2022-09-05T05:06:18.133Z,15.10
2022-09-05T05:08:38.983Z,15.00
2022-09-05T05:16:39.793Z,14.90
2022-09-05T05:18:06.879Z,14.90
2022-09-05T05:18:15.639Z,14.90
2022-09-05T05:20:39.267Z,14.80
2022-09-05T05:22:46.711Z,14.90
2022-09-05T05:25:14.491Z,14.80
2022-09-05T05:27:54.994Z,14.80
2022-09-05T05:30:27.258Z,14.80
2022-09-05T05:32:55.418Z,14.80
2022-09-05T05:35:28.585Z,14.80
2022-09-05T05:38:14.135Z,14.70
2022-09-05T05:40:51.244Z,14.70
2022-09-05T05:43:26.372Z,14.70
2022-09-05T05:45:58.545Z,14.70
2022-09-05T05:48:39.774Z,14.70
2022-09-05T05:51:13.492Z,14.70
2022-09-05T05:53:59.555Z,14.70
2022-09-05T05:56:30.147Z,14.80
2022-09-05T05:59:16.215Z,14.80
2022-09-05T06:01:46.841Z,14.80
2022-09-05T06:04:30.189Z,14.90
2022-09-05T06:07:15.902Z,14.90
2022-09-05T06:13:44.653Z,15.00
2022-09-05T06:15:02.192Z,15.00
2022-09-05T06:16:08.138Z,15.00
2022-09-05T06:18:45.715Z,15.10
2022-09-05T06:22:07.052Z,15.10
2022-09-05T06:24:09.917Z,15.10
2022-09-05T06:26:56.005Z,15.20
2022-09-05T06:29:46.967Z,15.20
2022-09-05T06:32:14.824Z,15.30
2022-09-05T06:35:00.369Z,15.30
2022-09-05T06:37:28.012Z,15.30
2022-09-05T06:40:17.039Z,15.30
2022-09-05T06:43:03.771Z,15.30
2022-09-05T06:45:31.390Z,15.20
2022-09-05T06:48:04.622Z,15.30
2022-09-05T06:51:07.003Z,15.30
2022-09-05T06:53:38.126Z,15.30
2022-09-05T06:56:08.587Z,15.50
2022-09-05T06:58:55.307Z,15.50
2022-09-05T07:01:59.806Z,15.60
2022-09-05T07:04:54.005Z,15.70
2022-09-05T07:07:19.701Z,15.80
2022-09-05T07:09:53.992Z,15.90
2022-09-05T07:12:21.321Z,16.00
2022-09-05T07:15:09.363Z,16.10
2022-09-05T07:17:59.688Z,16.10
2022-09-05T07:21:15.916Z,16.20
2022-09-05T07:24:05.971Z,16.20
2022-09-05T07:26:51.774Z,16.20
2022-09-05T07:29:22.641Z,16.30
2022-09-05T07:31:55.620Z,16.40
2022-09-05T07:34:27.031Z,16.50
2022-09-05T07:37:14.207Z,16.50
2022-09-05T07:39:50.590Z,16.60
2022-09-05T07:42:22.080Z,16.70
2022-09-05T07:44:59.112Z,16.70
2022-09-05T07:47:32.094Z,16.80
2022-09-05T07:52:24.926Z,16.80
2022-09-05T07:57:01.707Z,16.80
2022-09-05T07:57:15.784Z,16.90
2022-09-05T07:58:35.484Z,16.90
2022-09-05T08:01:03.075Z,16.90
2022-09-05T08:03:30.628Z,17.00
2022-09-05T08:06:01.661Z,17.10
2022-09-05T08:08:38.282Z,17.10
2022-09-05T08:11:24.843Z,17.20
2022-09-05T08:14:41.739Z,17.20
2022-09-05T08:16:54.500Z,17.20
2022-09-05T08:19:24.698Z,17.30
2022-09-05T08:21:52.703Z,17.20
2022-09-05T08:24:29.370Z,17.30
2022-09-05T08:27:16.564Z,17.30
2022-09-05T08:29:47.126Z,17.30
2022-09-05T08:32:24.208Z,17.40
2022-09-05T08:34:55.060Z,17.50
2022-09-05T08:37:23.625Z,17.50
2022-09-05T08:40:10.047Z,17.50
2022-09-05T08:42:42.651Z,17.50
2022-09-05T08:46:40.231Z,17.50
2022-09-05T08:48:35.235Z,17.50
2022-09-05T08:51:19.063Z,17.50
2022-09-05T08:53:58.463Z,17.50
2022-09-05T08:56:49.574Z,17.60
2022-09-05T09:00:04.307Z,17.70
2022-09-05T09:02:48.337Z,17.70
2022-09-05T09:05:25.200Z,17.80
2022-09-05T09:08:15.677Z,17.80
2022-09-05T09:10:43.306Z,17.90
2022-09-05T09:13:10.672Z,18.00
2022-09-05T09:15:44.995Z,18.00
2022-09-05T09:18:12.437Z,18.10
2022-09-05T09:20:53.009Z,18.10
2022-09-05T09:23:31.949Z,18.10
2022-09-05T09:26:26.759Z,18.20
2022-09-05T09:29:03.744Z,18.30
2022-09-05T09:31:37.674Z,18.40
2022-09-05T09:34:05.180Z,18.60
2022-09-05T09:36:35.568Z,18.70
2022-09-05T09:39:29.285Z,18.80
2022-09-05T09:42:12.260Z,19.00
2022-09-05T09:45:22.448Z,19.20
2022-09-05T09:48:15.358Z,19.40
2022-09-05T09:51:01.771Z,19.50
2022-09-05T09:53:48.082Z,19.70
2022-09-05T09:56:38.805Z,19.80
2022-09-05T09:59:12.343Z,20.00
2022-09-05T10:01:53.432Z,20.10
2022-09-05T10:10:37.981Z,20.30
2022-09-05T10:11:09.667Z,20.50
2022-09-05T10:11:24.609Z,20.60
2022-09-05T10:13:17.241Z,20.70
2022-09-05T10:15:47.007Z,20.80
2022-09-05T10:18:24.310Z,20.80
2022-09-05T10:21:16.031Z,20.80
2022-09-05T10:23:54.639Z,20.80
2022-09-05T10:26:37.399Z,20.90
2022-09-05T10:29:34.052Z,21.00
2022-09-05T10:35:11.305Z,21.00
2022-09-05T10:35:17.910Z,21.10
2022-09-05T10:37:42.314Z,21.20
2022-09-05T10:40:14.462Z,21.20
2022-09-05T10:43:00.190Z,21.30
2022-09-05T10:45:38.938Z,21.30
2022-09-05T10:48:13.709Z,21.20
2022-09-05T10:50:43.804Z,21.10
2022-09-05T10:53:17.018Z,21.10
2022-09-05T10:55:50.591Z,21.00
2022-09-05T10:59:20.672Z,21.00
2022-09-05T11:02:24.863Z,21.00
2022-09-05T11:04:15.080Z,21.10
2022-09-05T11:06:45.369Z,21.40
2022-09-05T11:09:29.898Z,21.50
2022-09-05T11:12:05.368Z,21.60
2022-09-05T11:14:34.061Z,21.70
2022-09-05T11:17:19.886Z,21.80
2022-09-05T11:19:57.022Z,21.80
2022-09-05T11:22:25.319Z,21.80
2022-09-05T11:24:58.134Z,21.90
2022-09-05T11:27:26.113Z,22.10
2022-09-05T11:30:29.991Z,22.30
2022-09-05T11:39:02.109Z,22.60
2022-09-05T11:39:51.604Z,22.80
2022-09-05T11:40:02.338Z,23.00
2022-09-05T11:41:53.212Z,23.10
2022-09-05T11:44:25.697Z,23.40
2022-09-05T11:47:27.923Z,23.60
2022-09-05T11:50:20.195Z,23.70
2022-09-05T11:53:10.102Z,23.60
2022-09-05T11:55:49.541Z,23.70
2022-09-05T11:58:45.158Z,24.00
2022-09-05T12:01:43.203Z,24.40
2022-09-05T12:04:17.097Z,24.70
2022-09-05T12:07:30.562Z,24.80
2022-09-05T12:10:46.385Z,25.00
2022-09-05T12:13:17.713Z,25.30
2022-09-05T12:16:00.648Z,25.10
2022-09-05T12:18:39.261Z,25.00
2022-09-05T12:21:10.283Z,25.00
2022-09-05T12:24:55.023Z,24.90
2022-09-05T12:27:38.202Z,24.70
2022-09-05T12:29:49.420Z,25.10
2022-09-05T12:34:46.692Z,25.70
2022-09-05T12:36:10.928Z,26.50
2022-09-05T12:40:58.338Z,27.00
2022-09-05T12:41:43.195Z,27.10
2022-09-05T12:44:41.754Z,27.00
2022-09-05T12:46:58.012Z,27.00
2022-09-05T12:49:52.336Z,27.10
2022-09-05T12:52:26.880Z,27.30
2022-09-05T12:54:59.079Z,27.40
2022-09-05T13:02:26.395Z,27.20
2022-09-05T13:03:07.650Z,26.90
2022-09-05T13:03:29.894Z,27.00
2022-09-05T13:06:04.536Z,27.10
2022-09-05T13:08:44.063Z,27.00
2022-09-05T13:14:46.228Z,26.70
2022-09-05T13:14:54.123Z,26.30
2022-09-05T13:16:54.272Z,26.00
2022-09-05T13:19:29.448Z,25.70
2022-09-05T13:21:58.373Z,25.40
2022-09-05T13:24:32.216Z,25.10
2022-09-05T13:27:08.935Z,24.70
2022-09-05T13:31:23.279Z,24.50
2022-09-05T13:37:59.370Z,24.20
2022-09-05T13:38:04.721Z,24.10
2022-09-05T13:38:49.900Z,23.90
2022-09-05T13:41:27.869Z,23.90
2022-09-05T13:44:00.220Z,23.70
2022-09-05T13:46:57.862Z,23.60
2022-09-05T13:49:31.673Z,23.50
2022-09-05T13:52:18.720Z,23.50
2022-09-05T13:54:51.217Z,23.50
2022-09-05T13:57:32.432Z,23.50
2022-09-05T14:00:06.667Z,23.40
2022-09-05T14:05:32.774Z,23.20
2022-09-05T14:08:18.068Z,23.10
2022-09-05T14:10:55.086Z,23.00
2022-09-05T14:13:25.413Z,23.00
2022-09-05T14:15:56.168Z,23.00
2022-09-05T14:18:26.733Z,23.00
2022-09-05T14:21:16.196Z,23.00
2022-09-05T14:23:46.283Z,22.90
2022-09-05T14:26:40.544Z,22.80
2022-09-05T14:29:17.134Z,22.70
2022-09-05T14:37:46.202Z,22.70
2022-09-05T14:37:55.499Z,22.60
2022-09-05T14:38:04.440Z,22.60
2022-09-05T14:40:43.395Z,22.50
2022-09-05T14:43:10.857Z,22.40
2022-09-05T14:45:46.110Z,22.30
2022-09-05T14:48:16.587Z,22.10
2022-09-05T14:51:00.337Z,21.90
2022-09-05T14:57:23.047Z,21.70
2022-09-05T15:02:44.209Z,21.30
2022-09-05T15:02:52.810Z,20.90
2022-09-05T15:04:58.702Z,20.60
2022-09-05T15:07:36.434Z,20.40
2022-09-05T15:12:18.208Z,20.30
2022-09-05T15:13:10.418Z,20.20
2022-09-05T15:15:39.671Z,20.20
2022-09-05T15:18:25.624Z,20.20
2022-09-05T15:20:59.985Z,20.20
2022-09-05T15:23:29.602Z,20.10
2022-09-05T15:26:00.187Z,20.10
2022-09-05T15:28:35.483Z,20.00
2022-09-05T15:31:07.151Z,20.00
2022-09-05T15:33:35.497Z,20.00
2022-09-05T15:36:04.025Z,19.90
2022-09-05T15:38:31.563Z,20.00
2022-09-05T15:41:21.861Z,19.90
2022-09-05T15:43:51.746Z,19.90
2022-09-05T15:46:20.943Z,19.80
2022-09-05T15:48:53.117Z,19.80
2022-09-05T15:51:32.460Z,19.70
2022-09-05T15:54:02.613Z,19.70
2022-09-05T15:56:30.149Z,19.60
2022-09-05T15:58:59.192Z,19.50
2022-09-05T16:01:58.040Z,19.30
2022-09-05T16:08:10.630Z,19.20
2022-09-05T16:10:41.689Z,19.10
2022-09-05T16:10:50.976Z,19.00
2022-09-05T16:12:56.896Z,19.00
2022-09-05T16:22:48.169Z,19.00
2022-09-05T16:23:30.261Z,18.80
2022-09-05T16:23:32.266Z,18.90
2022-09-05T16:24:07.458Z,18.80
2022-09-05T16:26:40.928Z,18.80
2022-09-05T16:29:40.849Z,18.80
2022-09-05T16:32:11.259Z,18.80
2022-09-05T16:34:59.162Z,18.90
2022-09-05T16:37:38.664Z,18.80
2022-09-05T16:40:06.150Z,18.60
2022-09-05T16:42:47.740Z,18.70
2022-09-05T16:45:22.242Z,18.60
2022-09-05T16:48:05.002Z,18.70
2022-09-05T16:50:36.972Z,18.70
2022-09-05T16:53:30.445Z,18.70
2022-09-05T16:56:07.730Z,18.70
2022-09-05T16:58:43.518Z,18.80
2022-09-05T17:01:29.222Z,18.90
2022-09-05T17:03:58.643Z,18.90
2022-09-05T17:06:45.765Z,19.00
2022-09-05T17:09:27.147Z,19.00
2022-09-05T17:12:02.272Z,19.10
2022-09-05T17:14:35.118Z,19.10
2022-09-05T17:17:43.902Z,19.20
2022-09-05T17:20:06.848Z,19.30
2022-09-05T17:26:42.774Z,19.30
2022-09-05T17:29:33.771Z,19.30
2022-09-05T17:29:48.959Z,19.30
2022-09-05T17:31:54.271Z,19.40
2022-09-05T17:34:41.819Z,19.40
2022-09-05T17:37:19.640Z,19.40
2022-09-05T17:39:47.194Z,19.30
2022-09-05T17:42:14.740Z,19.30
2022-09-05T17:44:50.634Z,19.30
2022-09-05T17:47:35.311Z,19.30
2022-09-05T17:50:23.448Z,19.30
2022-09-05T17:53:26.131Z,19.20
2022-09-05T17:55:55.015Z,19.10
2022-09-05T17:58:22.872Z,19.10
2022-09-05T18:00:50.496Z,19.10
2022-09-05T18:03:51.284Z,19.00
2022-09-05T18:06:18.710Z,19.00
2022-09-05T18:08:46.223Z,19.00
2022-09-05T18:11:25.606Z,18.90
2022-09-05T18:14:02.870Z,18.90
2022-09-05T18:17:35.394Z,18.90
2022-09-05T18:19:57.782Z,18.80
2022-09-05T18:22:32.990Z,18.80
2022-09-05T18:25:00.467Z,18.80
2022-09-05T18:28:05.402Z,18.70
2022-09-05T18:33:54.674Z,18.60
2022-09-05T18:35:57.891Z,18.50
2022-09-05T18:38:51.131Z,18.50
2022-09-05T18:41:23.416Z,18.40
2022-09-05T18:44:12.227Z,18.40
2022-09-05T18:46:53.011Z,18.30
2022-09-05T18:50:24.718Z,18.30
2022-09-05T18:52:29.215Z,18.20
2022-09-05T18:56:00.774Z,18.20
2022-09-05T18:58:08.430Z,18.10
2022-09-05T19:00:44.495Z,18.10
2022-09-05T19:03:24.920Z,18.00
2022-09-05T19:05:55.429Z,18.00
2022-09-05T19:08:32.350Z,18.00
2022-09-05T19:11:01.289Z,17.90
2022-09-05T19:13:48.961Z,17.90
2022-09-05T19:16:47.962Z,17.90
2022-09-05T19:19:24.458Z,17.90
2022-09-05T19:22:07.063Z,17.80
2022-09-05T19:24:45.522Z,17.80
2022-09-05T19:29:23.299Z,17.80
2022-09-05T19:36:51.850Z,17.70
2022-09-05T19:37:06.617Z,17.70
2022-09-05T19:37:10.672Z,17.70
2022-09-05T19:38:45.767Z,17.70
2022-09-05T19:47:27.603Z,17.70
2022-09-05T19:47:40.839Z,17.60
2022-09-05T19:47:50.725Z,17.60
2022-09-05T19:50:01.262Z,17.60
2022-09-05T19:52:28.770Z,17.60
2022-09-05T19:54:58.953Z,17.60
2022-09-05T19:57:26.517Z,17.70
2022-09-05T19:59:55.030Z,17.70
2022-09-05T20:02:25.647Z,17.70
2022-09-05T20:04:54.707Z,17.70
2022-09-05T20:07:23.453Z,17.80
2022-09-05T20:09:51.534Z,17.90
2022-09-05T20:12:24.402Z,17.90
2022-09-05T20:14:52.134Z,17.90
2022-09-05T20:17:21.013Z,17.90
2022-09-05T20:19:48.447Z,18.00
2022-09-05T20:22:47.693Z,18.00
2022-09-05T20:25:36.919Z,18.00
2022-09-05T20:28:07.094Z,18.00
2022-09-05T20:30:40.862Z,18.10
2022-09-05T20:33:28.529Z,18.10
2022-09-05T20:41:15.557Z,18.10
2022-09-05T20:43:19.750Z,18.20
2022-09-05T20:43:20.806Z,18.10
2022-09-05T20:44:39.721Z,18.20
2022-09-05T20:51:24.961Z,18.00
2022-09-05T20:54:17.368Z,17.90
2022-09-05T20:54:26.937Z,17.60
2022-09-05T20:56:03.251Z,17.30
2022-09-05T20:58:31.949Z,17.00
2022-09-05T21:01:20.441Z,16.80
2022-09-05T21:04:08.154Z,16.60
2022-09-05T21:06:36.303Z,16.40
2022-09-05T21:09:25.697Z,16.20
2022-09-05T21:11:56.019Z,16.20
2022-09-05T21:14:24.723Z,16.10
2022-09-05T21:16:58.229Z,15.90
2022-09-05T21:19:29.278Z,15.90
2022-09-05T21:22:15.339Z,15.80
2022-09-05T21:24:43.638Z,15.70
2022-09-05T21:27:37.357Z,15.70
2022-09-05T21:30:21.142Z,15.60
2022-09-05T21:32:51.141Z,15.60
2022-09-05T21:35:35.043Z,15.60
2022-09-05T21:38:03.010Z,15.60
2022-09-05T21:40:30.571Z,15.90
2022-09-05T21:46:14.257Z,15.60
2022-09-05T21:47:43.206Z,15.50
2022-09-05T21:48:40.005Z,15.50
2022-09-05T21:51:08.430Z,15.50
2022-09-05T21:56:38.675Z,15.50
2022-09-05T21:59:22.613Z,15.50
2022-09-05T21:59:36.753Z,15.60
2022-09-05T22:02:08.423Z,15.50
2022-09-05T22:04:41.382Z,15.50
2022-09-05T22:07:19.491Z,15.50
2022-09-05T22:09:59.982Z,15.50
2022-09-05T22:12:31.343Z,15.50
2022-09-05T22:15:11.475Z,15.40
2022-09-05T22:17:47.297Z,15.40
2022-09-05T22:20:16.030Z,15.40
2022-09-05T22:22:56.041Z,15.50
2022-09-05T22:25:30.035Z,15.40
2022-09-05T22:28:06.499Z,15.40
2022-09-05T22:30:35.490Z,15.40
2022-09-05T22:33:05.417Z,15.40
2022-09-05T22:35:33.728Z,15.50
2022-09-05T22:38:02.256Z,15.50
2022-09-05T22:40:30.487Z,15.50
2022-09-05T22:42:58.954Z,15.50
2022-09-05T22:45:27.026Z,15.50
2022-09-05T22:47:54.749Z,15.50
2022-09-05T22:50:22.581Z,15.40
2022-09-05T22:52:50.051Z,15.40
2022-09-05T22:55:17.698Z,15.50
2022-09-05T22:57:45.071Z,15.40
2022-09-05T23:00:12.809Z,15.50
2022-09-05T23:02:40.163Z,15.50
2022-09-05T23:05:08.053Z,15.50
2022-09-05T23:07:36.040Z,15.50
2022-09-05T23:10:04.115Z,15.50
2022-09-05T23:12:35.015Z,15.50
2022-09-05T23:15:02.538Z,15.50
2022-09-05T23:17:30.034Z,15.50
2022-09-05T23:19:57.516Z,15.50
2022-09-05T23:22:25.376Z,15.50
2022-09-05T23:24:52.753Z,15.50
2022-09-05T23:27:20.130Z,15.50
2022-09-05T23:29:47.719Z,15.40
2022-09-05T23:32:15.195Z,15.40
2022-09-05T23:34:42.692Z,15.30
2022-09-05T23:37:10.080Z,15.30
2022-09-05T23:39:37.703Z,15.20
2022-09-05T23:42:05.347Z,15.20
2022-09-05T23:44:32.826Z,15.10
2022-09-05T23:47:00.200Z,15.10
2022-09-05T23:49:27.615Z,15.10
2022-09-05T23:51:55.000Z,15.00
2022-09-05T23:54:22.412Z,15.00
2022-09-05T23:56:49.850Z,15.00
2022-09-05T23:59:17.394Z,15.00
